METAR Data
IDs: Format: Raw Decoded Include TAF

Data at: 0236 UTC 18 Jun 2019

PAFA 180153Z 15010KT 10SM FEW065 SCT085 BKN100 BKN200 22/07 A2959 RMK AO2 SLP022 CB DSNT ALQDS T02170067
PAFA 180053Z VRB03KT 10SM SCT065CB BKN085 BKN200 22/07 A2959 RMK AO2 SLP023 PRSNT WX VCSH W-N CB W-N AND DSNT ALQDS MOV W T02170072
PAFA 172353Z 16009G18KT 10SM SCT065CB BKN090 BKN200 21/06 A2956 RMK AO2 SLP015 PRSNT WX VCSH N SE-SW CB N AND SE-SW MOV W T02060061 10239 20172 55003
PAFA 172253Z VRB04KT 10SM SCT065CB BKN090 BKN200 24/06 A2955 RMK AO2 SLP009 CB N AND SE MOV W T02390056
PAFA 172153Z 08006KT 10SM SCT065CB SCT090 BKN200 23/08 A2956 RMK AO2 SLP013 CB SE AND NW MOV W T02280078
PAFA 172053Z 08008KT 10SM SCT070 SCT090 BKN200 22/08 A2957 RMK AO2 SLP017 T02170083 57006
PAFA 171953Z 08004KT 10SM FEW070 SCT090 BKN200 21/09 A2958 RMK AO2 SLP019 T02060089
PAFA 171853Z VRB03KT 10SM FEW070 FEW090 BKN220 19/10 A2958 RMK AO2 SLP021 T01940100
PAFA 171753Z 13007KT 10SM FEW070 FEW090 BKN220 17/09 A2959 RMK AO2 SLP023 T01720094 10178 20100 56006
PAFA 171653Z 16003KT 10SM FEW070 SCT090 BKN220 17/10 A2960 RMK AO2 SLP024 T01670100
PAFA 171553Z 00000KT 10SM SCT075 SCT100 BKN220 15/11 A2961 RMK AO2 SLP028 T01500106
PAFA 171453Z 08003KT 10SM FEW050 SCT100 BKN200 14/10 A2961 RMK AO2 SLP030 T01390100 56004
PAFA 171353Z 03003KT 10SM FEW050 SCT100 BKN200 12/10 A2961 RMK AO2 SLP031 T01220100
PAFA 171253Z 04005KT 10SM FEW050 SCT100 BKN200 11/09 A2962 RMK AO2 SLP032 T01060089
PAFA 171153Z 05004KT 10SM FEW050 FEW100 BKN200 11/09 A2962 RMK AO2 SLP033 T01060089 10178 20100 58008
PAFA 171053Z 04003KT 10SM FEW050 FEW100 BKN200 12/10 A2963 RMK AO2 SLP036 T01170100
PAFA 170953Z 00000KT 10SM FEW050 FEW100 BKN200 12/11 A2964 RMK AO2 SLP040 T01220106
PAFA 170853Z 00000KT 10SM FEW050 FEW100 BKN200 13/11 A2965 RMK AO2 SLP042 T01330106 402610133 53000
PAFA 170753Z 14003KT 10SM FEW065 FEW140 BKN180 16/11 A2964 RMK AO2 SLP040 T01610106
PAFA 170653Z 13003KT 10SM FEW065 FEW140 BKN180 18/11 A2964 RMK AO2 SLP038 T01780106
PAFA 170553Z 32003KT 10SM FEW065 FEW110 BKN180 18/11 A2964 RMK AO2 SLP041 SH DSNT S-SW T01780106 10261 20172 51015
PAFA 170453Z 00000KT 10SM FEW065 SCT110 BKN180 18/10 A2964 RMK AO2 SLP041 CB DSNT SE-S T01830100
PAFA 170353Z 16014G20KT 10SM FEW065 SCT090 BKN120 BKN180 19/10 A2963 RMK AO2 SLP036 CB DSNT SE-S T01890100
PAFA 170253Z 12008KT 10SM FEW060 SCT085 BKN180 24/07 A2960 RMK AO2 SLP026 CB DSNT E-SE T02390072 56013
PAFA 170153Z 00000KT 10SM R02L/3500VP6000FT FEW060 SCT075 BKN140 BKN200 26/07 A2960 RMK AO2 SLP027 CB BSNT E SH DSNT NE-E T02560067
PAFA 170053Z 27006KT 10SM FEW060 SCT090 BKN200 26/08 A2962 RMK AO2 SLP033 SH DSNT NE-E T02560078
PAFA 162353Z 18006KT 10SM FEW060 SCT160 BKN220 24/09 A2964 RMK AO2 SLP039 T02440089 10244 20200 58020
PAFA 162253Z 00000KT 10SM FEW050 SCT090 BKN180 24/08 A2966 RMK AO2 SLP047 ACSL E-S T02390078
PAFA 162153Z VRB04KT 10SM FEW060 SCT100 BKN180 23/08 A2968 RMK AO2 SLP054 ACSL E-S-SW T02330083
PAFA 162053Z 14005KT 10SM FEW050 SCT110 BKN180 22/08 A2970 RMK AO2 SLP059 ACSL NE-SE T02220083 58013
PAFA 161953Z COR VRB03KT 10SM FEW050 SCT110 BKN180 22/09 A2971 RMK AO2 SLP064 ACSL NE-E T02170089
PAFA 161853Z 15006KT 10SM FEW070 SCT110 BKN180 21/09 A2973 RMK AO2 SLP069 ACSL ALQDS T02060094
PAFA 161753Z VRB04KT 10SM FEW070 SCT110 BKN180 20/09 A2974 RMK AO2 SLP072 ACSL ALQDS T02000089 10206 20133 58010
PAFA 161653Z 05004KT 10SM SCT070 BKN110 BKN180 19/09 A2975 RMK AO2 SLP077 ACSL ALQDS T01890094
PAFA 161553Z 05003KT 10SM SCT070 BKN110 BKN180 17/09 A2976 RMK AO2 SLP081 ACSL ALQDS T01720089
PAFA 161453Z 03004KT 10SM BKN110 BKN180 17/09 A2977 RMK AO2 SLP083 T01670089 56002